createdAt,value
2022-10-24T00:01:12.988Z,4.63
2022-10-24T00:03:40.373Z,5.28
2022-10-24T00:06:08.489Z,4.20
2022-10-24T00:08:36.438Z,4.60
2022-10-24T00:11:03.743Z,5.38
2022-10-24T00:13:31.061Z,4.78
2022-10-24T00:15:59.697Z,4.22
2022-10-24T00:18:27.072Z,4.53
2022-10-24T00:20:54.373Z,3.85
2022-10-24T00:23:21.731Z,3.55
2022-10-24T00:25:49.048Z,4.82
2022-10-24T00:28:16.360Z,4.53
2022-10-24T00:30:43.715Z,4.70
2022-10-24T00:33:12.372Z,4.95
2022-10-24T00:35:39.663Z,4.80
2022-10-24T00:38:06.976Z,4.93
2022-10-24T00:40:34.336Z,5.00
2022-10-24T00:43:01.645Z,4.90
2022-10-24T00:45:41.154Z,4.03
2022-10-24T00:48:15.859Z,4.35
2022-10-24T00:50:43.371Z,5.55
2022-10-24T00:53:10.827Z,4.80
2022-10-24T00:55:38.486Z,4.85
2022-10-24T00:58:06.930Z,4.45
2022-10-24T01:00:35.151Z,4.57
2022-10-24T01:03:02.715Z,4.60
2022-10-24T01:05:34.035Z,4.28
2022-10-24T01:08:04.334Z,4.47
2022-10-24T01:10:37.377Z,4.32
2022-10-24T01:13:10.423Z,4.65
2022-10-24T01:15:41.019Z,3.95
2022-10-24T01:18:11.798Z,4.40
2022-10-24T01:20:53.083Z,4.85
2022-10-24T01:23:30.391Z,4.45
2022-10-24T01:26:01.864Z,4.63
2022-10-24T01:28:31.062Z,4.10
2022-10-24T01:31:03.986Z,4.55
2022-10-24T01:33:32.780Z,4.50
2022-10-24T01:36:03.409Z,4.78
2022-10-24T01:38:33.827Z,4.53
2022-10-24T01:41:03.164Z,4.82
2022-10-24T01:43:32.959Z,4.00
2022-10-24T01:46:04.427Z,4.47
2022-10-24T01:48:33.216Z,4.15
2022-10-24T01:51:02.401Z,3.95
2022-10-24T01:53:30.996Z,5.05
2022-10-24T01:55:58.695Z,4.88
2022-10-24T01:58:26.091Z,4.40
2022-10-24T02:00:55.765Z,4.93
2022-10-24T02:03:27.843Z,3.97
2022-10-24T02:05:56.969Z,4.40
2022-10-24T02:08:29.199Z,3.72
2022-10-24T02:10:58.187Z,4.93
2022-10-24T02:13:28.103Z,5.13
2022-10-24T02:15:57.605Z,3.72
2022-10-24T02:18:26.523Z,4.35
2022-10-24T02:20:55.568Z,3.78
2022-10-24T02:23:28.087Z,4.75
2022-10-24T02:25:57.791Z,4.05
2022-10-24T02:28:27.497Z,3.80
2022-10-24T02:30:57.082Z,4.25
2022-10-24T02:33:26.384Z,4.75
2022-10-24T02:35:54.252Z,4.60
2022-10-24T02:38:24.787Z,4.85
2022-10-24T02:40:53.309Z,4.50
2022-10-24T02:43:22.374Z,4.00
2022-10-24T02:45:50.279Z,4.30
2022-10-24T02:48:20.612Z,5.13
2022-10-24T02:53:22.727Z,4.38
2022-10-24T02:55:50.051Z,4.30
2022-10-24T02:58:17.408Z,4.55
2022-10-24T03:00:44.848Z,4.43
2022-10-24T03:03:12.211Z,4.55
2022-10-24T03:05:39.539Z,4.00
2022-10-24T03:08:08.316Z,4.40
2022-10-24T03:10:35.675Z,4.97
2022-10-24T03:13:03.578Z,4.43
2022-10-24T03:15:31.145Z,4.30
2022-10-24T03:17:58.492Z,4.78
2022-10-24T03:20:26.001Z,4.50
2022-10-24T03:22:53.257Z,3.90
2022-10-24T03:25:21.926Z,4.85
2022-10-24T03:27:49.257Z,3.92
2022-10-24T03:30:16.971Z,4.72
2022-10-24T03:32:44.655Z,4.50
2022-10-24T03:35:14.129Z,4.45
2022-10-24T03:37:41.945Z,4.85
2022-10-24T03:40:09.927Z,4.55
2022-10-24T03:42:38.712Z,5.22
2022-10-24T03:45:06.620Z,4.85
2022-10-24T03:47:33.912Z,4.45
2022-10-24T03:50:01.311Z,4.30
2022-10-24T03:52:28.610Z,4.53
2022-10-24T03:54:55.919Z,4.53
2022-10-24T03:57:23.283Z,4.20
2022-10-24T03:59:51.935Z,4.40
2022-10-24T04:02:19.265Z,3.72
2022-10-24T04:04:46.622Z,3.05
2022-10-24T04:07:13.924Z,2.95
2022-10-24T04:09:41.277Z,2.80
2022-10-24T04:12:08.638Z,1.88
2022-10-24T04:14:35.952Z,2.15
2022-10-24T04:17:04.701Z,2.20
2022-10-24T04:19:32.065Z,2.50
2022-10-24T04:21:59.429Z,2.00
2022-10-24T04:24:26.787Z,1.98
2022-10-24T04:26:54.100Z,2.08
2022-10-24T04:29:21.453Z,2.50
2022-10-24T04:31:48.824Z,2.63
2022-10-24T04:34:17.870Z,2.85
2022-10-24T04:36:45.188Z,2.30
2022-10-24T04:39:12.512Z,2.00
2022-10-24T04:41:39.934Z,2.22
2022-10-24T04:44:07.254Z,2.10
2022-10-24T04:46:34.555Z,1.92
2022-10-24T04:49:01.833Z,1.60
2022-10-24T04:51:30.518Z,1.50
2022-10-24T04:53:57.802Z,1.92
2022-10-24T04:56:25.835Z,1.80
2022-10-24T04:58:53.584Z,1.48
2022-10-24T05:01:20.991Z,2.10
2022-10-24T05:03:48.383Z,1.65
2022-10-24T05:06:15.726Z,1.58
2022-10-24T05:08:44.449Z,1.40
2022-10-24T05:11:12.005Z,1.67
2022-10-24T05:13:39.437Z,1.80
2022-10-24T05:16:07.099Z,1.30
2022-10-24T05:18:34.484Z,1.60
2022-10-24T05:21:01.973Z,1.20
2022-10-24T05:23:29.337Z,1.60
2022-10-24T05:25:57.953Z,1.80
2022-10-24T05:28:25.253Z,1.42
2022-10-24T05:30:52.571Z,1.75
2022-10-24T05:33:19.945Z,1.80
2022-10-24T05:35:47.274Z,1.65
2022-10-24T05:38:14.613Z,2.05
2022-10-24T05:40:41.951Z,1.83
2022-10-24T05:43:10.569Z,1.80
2022-10-24T05:45:37.935Z,1.58
2022-10-24T05:48:05.643Z,1.60
2022-10-24T05:50:32.963Z,1.60
2022-10-24T05:53:00.245Z,1.27
2022-10-24T05:55:27.579Z,1.20
2022-10-24T05:57:54.893Z,1.40
2022-10-24T06:00:23.569Z,1.65
2022-10-24T06:02:50.880Z,1.77
2022-10-24T06:05:18.843Z,1.92
2022-10-24T06:07:46.980Z,1.55
2022-10-24T06:10:15.246Z,1.77
2022-10-24T06:12:42.854Z,1.70
2022-10-24T06:15:10.977Z,1.63
2022-10-24T06:17:39.647Z,1.88
2022-10-24T06:20:07.424Z,1.73
2022-10-24T06:22:34.761Z,1.58
2022-10-24T06:25:02.399Z,1.77
2022-10-24T06:27:29.814Z,1.55
2022-10-24T06:29:57.132Z,1.85
2022-10-24T06:32:24.491Z,1.60
2022-10-24T06:34:53.253Z,1.73
2022-10-24T06:37:20.607Z,1.60
2022-10-24T06:39:47.937Z,1.70
2022-10-24T06:42:15.259Z,1.73
2022-10-24T06:44:42.616Z,1.50
2022-10-24T06:47:09.955Z,1.13
2022-10-24T06:49:37.379Z,1.70
2022-10-24T06:52:06.131Z,1.60
2022-10-24T06:54:35.264Z,1.38
2022-10-24T06:57:02.519Z,1.75
2022-10-24T06:59:29.941Z,1.50
2022-10-24T07:02:01.719Z,1.50
2022-10-24T07:04:32.396Z,1.65
2022-10-24T07:06:59.706Z,1.80
2022-10-24T07:09:28.862Z,1.63
2022-10-24T07:11:56.201Z,1.60
2022-10-24T07:14:25.743Z,1.92
2022-10-24T07:16:53.062Z,1.40
2022-10-24T07:19:20.427Z,1.10
2022-10-24T07:21:47.790Z,1.45
2022-10-24T07:24:15.126Z,1.42
2022-10-24T07:26:43.791Z,1.17
2022-10-24T07:29:11.156Z,1.38
2022-10-24T07:31:38.471Z,1.40
2022-10-24T07:34:06.577Z,1.20
2022-10-24T07:36:33.971Z,1.42
2022-10-24T07:39:01.739Z,1.55
2022-10-24T07:41:29.932Z,1.58
2022-10-24T07:43:58.921Z,2.05
2022-10-24T07:46:26.821Z,1.95
2022-10-24T07:48:54.591Z,2.10
2022-10-24T07:51:22.046Z,1.67
2022-10-24T07:53:49.459Z,1.67
2022-10-24T07:56:17.485Z,1.58
2022-10-24T07:58:45.363Z,1.30
2022-10-24T08:01:14.912Z,1.80
2022-10-24T08:03:42.262Z,2.05
2022-10-24T08:06:11.481Z,1.23
2022-10-24T08:08:39.376Z,1.35
2022-10-24T08:11:10.377Z,1.38
2022-10-24T08:13:38.161Z,1.40
2022-10-24T08:16:06.377Z,1.30
2022-10-24T08:18:39.601Z,0.90
2022-10-24T08:21:08.054Z,1.10
2022-10-24T08:23:36.112Z,1.50
2022-10-24T08:26:05.066Z,2.35
2022-10-24T08:28:32.426Z,1.60
2022-10-24T08:31:00.359Z,1.13
2022-10-24T08:33:27.884Z,1.75
2022-10-24T08:35:58.281Z,1.40
2022-10-24T08:38:25.557Z,1.50
2022-10-24T08:40:52.994Z,1.10
2022-10-24T08:43:20.481Z,2.00
2022-10-24T08:45:53.424Z,1.27
2022-10-24T08:48:24.076Z,1.58
2022-10-24T08:50:53.673Z,1.17
2022-10-24T08:53:25.251Z,1.30
2022-10-24T08:55:53.757Z,1.45
2022-10-24T08:58:22.330Z,1.40
2022-10-24T09:00:50.437Z,1.52
2022-10-24T09:03:26.594Z,1.70
2022-10-24T09:06:07.727Z,1.45
2022-10-24T09:08:40.241Z,1.95
2022-10-24T09:11:08.202Z,1.58
2022-10-24T09:13:38.252Z,1.73
2022-10-24T09:16:05.730Z,2.22
2022-10-24T09:18:35.307Z,1.73
2022-10-24T09:21:03.319Z,1.70
2022-10-24T09:23:33.454Z,2.28
2022-10-24T09:26:03.526Z,1.75
2022-10-24T09:28:31.387Z,1.67
2022-10-24T09:30:58.703Z,1.25
2022-10-24T09:33:28.415Z,1.90
2022-10-24T09:35:56.957Z,1.70
2022-10-24T09:38:31.007Z,1.75
2022-10-24T09:41:00.723Z,2.03
2022-10-24T09:43:32.509Z,1.08
2022-10-24T09:46:02.188Z,1.45
2022-10-24T09:48:32.389Z,1.45
2022-10-24T09:51:00.508Z,2.28
2022-10-24T09:53:28.689Z,1.60
2022-10-24T09:55:57.776Z,1.75
2022-10-24T09:58:29.742Z,1.67
2022-10-24T10:01:00.084Z,1.40
2022-10-24T10:03:28.333Z,1.40
2022-10-24T10:05:56.446Z,1.45
2022-10-24T10:08:24.653Z,1.67
2022-10-24T10:10:59.142Z,1.42
2022-10-24T10:13:27.661Z,1.60
2022-10-24T10:15:56.264Z,1.90
2022-10-24T10:18:30.077Z,1.40
2022-10-24T10:21:02.528Z,1.55
2022-10-24T10:23:32.397Z,1.80
2022-10-24T10:26:03.501Z,1.45
2022-10-24T10:28:30.800Z,1.77
2022-10-24T10:31:00.375Z,1.58
2022-10-24T10:33:32.328Z,1.40
2022-10-24T10:36:01.422Z,1.30
2022-10-24T10:38:37.967Z,1.40
2022-10-24T10:41:08.745Z,1.23
2022-10-24T10:43:41.166Z,1.52
2022-10-24T10:46:16.240Z,1.73
2022-10-24T10:48:50.201Z,1.85
2022-10-24T10:51:23.158Z,1.10
2022-10-24T10:53:52.873Z,2.03
2022-10-24T10:56:26.315Z,1.52
2022-10-24T10:59:00.783Z,1.60
2022-10-24T11:01:33.550Z,1.70
2022-10-24T11:04:05.715Z,1.70
2022-10-24T11:06:42.874Z,1.33
2022-10-24T11:09:24.980Z,1.10
2022-10-24T11:11:54.354Z,1.48
2022-10-24T11:14:27.275Z,1.58
2022-10-24T11:16:56.663Z,1.38
2022-10-24T11:19:27.742Z,2.03
2022-10-24T11:21:56.310Z,1.38
2022-10-24T11:24:24.795Z,1.33
2022-10-24T11:26:55.838Z,1.35
2022-10-24T11:29:25.768Z,1.65
2022-10-24T11:31:54.967Z,1.90
2022-10-24T11:34:25.995Z,1.60
2022-10-24T11:36:56.584Z,1.92
2022-10-24T11:39:26.446Z,1.52
2022-10-24T11:41:57.193Z,1.80
2022-10-24T11:44:28.596Z,1.67
2022-10-24T11:47:05.597Z,2.35
2022-10-24T11:49:34.919Z,2.15
2022-10-24T11:52:09.444Z,1.67
2022-10-24T11:54:41.695Z,1.70
2022-10-24T11:59:44.658Z,2.13
2022-10-24T12:02:22.357Z,1.50
2022-10-24T12:05:02.494Z,1.42
2022-10-24T12:07:59.754Z,1.52
2022-10-24T12:10:32.829Z,1.40
2022-10-24T12:13:09.540Z,1.60
2022-10-24T12:15:45.765Z,1.85
2022-10-24T12:18:21.765Z,1.60
2022-10-24T12:20:51.708Z,1.90
2022-10-24T12:23:20.477Z,1.75
2022-10-24T12:25:52.985Z,1.98
2022-10-24T12:28:21.813Z,1.98
2022-10-24T12:31:03.997Z,1.70
2022-10-24T12:33:31.967Z,1.50
2022-10-24T12:35:59.368Z,1.70
2022-10-24T12:38:45.416Z,1.73
2022-10-24T12:41:27.631Z,1.80
2022-10-24T12:44:09.799Z,1.35
2022-10-24T12:46:56.993Z,1.70
2022-10-24T12:49:28.574Z,1.45
2022-10-24T12:51:56.449Z,1.42
2022-10-24T12:54:41.732Z,1.70
2022-10-24T12:59:46.593Z,2.38
2022-10-24T13:02:26.108Z,1.50
2022-10-24T13:04:59.921Z,1.63
2022-10-24T13:07:48.428Z,2.20
2022-10-24T13:10:35.979Z,1.40
2022-10-24T13:15:37.255Z,1.40
2022-10-24T13:18:16.801Z,1.43
2022-10-24T13:20:45.233Z,1.45
2022-10-24T13:23:17.108Z,1.63
2022-10-24T13:25:45.070Z,1.27
2022-10-24T13:28:35.958Z,1.45
2022-10-24T13:31:21.767Z,1.58
2022-10-24T13:33:50.477Z,1.50
2022-10-24T13:36:18.964Z,1.38
2022-10-24T13:38:48.477Z,1.38
2022-10-24T13:41:20.526Z,1.05
2022-10-24T13:43:49.024Z,1.15
2022-10-24T13:46:26.246Z,1.60
2022-10-24T13:48:55.503Z,1.40
2022-10-24T13:51:25.256Z,1.52
2022-10-24T13:53:53.851Z,1.30
2022-10-24T13:56:21.469Z,1.50
2022-10-24T13:58:48.946Z,1.50
2022-10-24T14:01:19.607Z,2.10
2022-10-24T14:03:47.824Z,1.80
2022-10-24T14:06:16.623Z,2.00
2022-10-24T14:08:50.154Z,1.42
2022-10-24T14:11:24.882Z,1.50
2022-10-24T14:13:53.351Z,1.52
2022-10-24T14:16:24.573Z,1.50
2022-10-24T14:18:51.951Z,1.27
2022-10-24T14:21:22.032Z,1.45
2022-10-24T14:23:58.905Z,1.15
2022-10-24T14:26:26.426Z,1.40
2022-10-24T14:28:58.907Z,1.17
2022-10-24T14:31:30.890Z,1.58
2022-10-24T14:33:58.831Z,1.70
2022-10-24T14:36:29.172Z,1.45
2022-10-24T14:38:58.619Z,1.60
2022-10-24T14:41:29.850Z,1.52
2022-10-24T14:43:58.573Z,1.67
2022-10-24T14:46:33.267Z,1.40
2022-10-24T14:49:02.185Z,1.45
2022-10-24T14:51:37.702Z,1.20
2022-10-24T14:54:14.579Z,1.48
2022-10-24T14:56:41.905Z,1.70
2022-10-24T14:59:19.503Z,2.03
2022-10-24T15:01:53.546Z,1.80
2022-10-24T15:04:29.155Z,1.50
2022-10-24T15:06:58.206Z,1.83
2022-10-24T15:09:25.538Z,1.30
2022-10-24T15:12:00.647Z,1.50
2022-10-24T15:14:37.537Z,1.40
2022-10-24T15:17:06.393Z,1.80
2022-10-24T15:19:37.815Z,1.23
2022-10-24T15:22:06.585Z,1.40
2022-10-24T15:24:33.940Z,1.63
2022-10-24T15:27:12.259Z,1.95
2022-10-24T15:29:40.840Z,1.33
2022-10-24T15:32:10.325Z,1.70
2022-10-24T15:34:37.654Z,1.52
2022-10-24T15:37:07.605Z,1.13
2022-10-24T15:39:34.946Z,1.38
2022-10-24T15:44:33.472Z,1.50
2022-10-24T15:47:01.037Z,1.52
2022-10-24T15:49:28.909Z,1.30
2022-10-24T15:51:56.397Z,1.52
2022-10-24T15:54:26.891Z,1.75
2022-10-24T15:56:54.546Z,1.65
2022-10-24T15:59:26.378Z,1.85
2022-10-24T16:01:54.770Z,1.65
2022-10-24T16:04:22.515Z,1.90
2022-10-24T16:06:49.846Z,1.45
2022-10-24T16:09:18.197Z,1.25
2022-10-24T16:11:46.883Z,1.52
2022-10-24T16:14:14.693Z,1.48
2022-10-24T16:16:42.042Z,2.05
2022-10-24T16:19:10.452Z,2.05
2022-10-24T16:21:38.298Z,1.60
2022-10-24T16:24:06.048Z,1.50
2022-10-24T16:26:33.417Z,1.45
2022-10-24T16:29:02.095Z,1.70
2022-10-24T16:31:29.428Z,1.75
2022-10-24T16:33:56.755Z,1.85
2022-10-24T16:36:24.868Z,1.88
2022-10-24T16:38:52.827Z,2.10
2022-10-24T16:41:21.715Z,1.75
2022-10-24T16:43:49.834Z,2.15
2022-10-24T16:46:20.251Z,2.00
2022-10-24T16:48:47.912Z,2.53
2022-10-24T16:51:16.372Z,2.15
2022-10-24T16:53:43.904Z,2.63
2022-10-24T16:56:11.763Z,2.05
2022-10-24T16:58:39.497Z,1.90
2022-10-24T17:01:07.991Z,2.00
2022-10-24T17:03:36.793Z,2.30
2022-10-24T17:06:04.253Z,2.53
2022-10-24T17:08:31.930Z,2.10
2022-10-24T17:11:00.656Z,2.92
2022-10-24T17:13:28.778Z,2.50
2022-10-24T17:15:56.412Z,2.63
2022-10-24T17:18:25.259Z,3.08
2022-10-24T17:20:58.796Z,2.47
2022-10-24T17:23:26.343Z,1.92
2022-10-24T17:25:53.872Z,2.50
2022-10-24T17:28:21.301Z,2.45
2022-10-24T17:30:48.796Z,2.55
2022-10-24T17:33:16.303Z,2.20
2022-10-24T17:35:47.925Z,2.25
2022-10-24T17:38:28.393Z,2.38
2022-10-24T17:40:57.947Z,2.30
2022-10-24T17:43:26.331Z,3.10
2022-10-24T17:45:54.548Z,2.10
2022-10-24T17:48:22.365Z,2.45
2022-10-24T17:50:49.711Z,2.00
2022-10-24T17:53:18.308Z,3.03
2022-10-24T17:55:48.077Z,2.80
2022-10-24T17:58:16.098Z,2.75
2022-10-24T18:00:43.920Z,2.33
2022-10-24T18:03:11.318Z,3.22
2022-10-24T18:05:39.044Z,2.85
2022-10-24T18:08:06.944Z,2.72
2022-10-24T18:10:34.303Z,2.88
2022-10-24T18:13:02.986Z,2.78
2022-10-24T18:15:30.354Z,2.85
2022-10-24T18:17:57.687Z,3.05
2022-10-24T18:20:25.166Z,2.22
2022-10-24T18:22:52.461Z,2.63
2022-10-24T18:25:22.722Z,3.22
2022-10-24T18:27:50.781Z,11.35
2022-10-24T18:30:20.008Z,8.90
2022-10-24T18:32:47.941Z,16.10
2022-10-24T18:35:15.575Z,13.30
2022-10-24T18:37:42.974Z,12.25
2022-10-24T18:40:11.165Z,6.43
2022-10-24T18:42:43.583Z,3.33
2022-10-24T18:45:12.826Z,3.40
2022-10-24T18:47:41.935Z,2.90
2022-10-24T18:50:15.354Z,2.45
2022-10-24T18:52:46.618Z,2.95
2022-10-24T18:55:15.425Z,3.80
2022-10-24T18:57:42.962Z,2.95
2022-10-24T19:00:12.593Z,3.00
2022-10-24T19:05:21.621Z,3.05
2022-10-24T19:07:49.316Z,2.05
2022-10-24T19:10:22.181Z,2.20
2022-10-24T19:12:49.857Z,2.58
2022-10-24T19:15:17.509Z,2.33
2022-10-24T19:17:45.218Z,1.95
2022-10-24T19:20:16.393Z,2.17
2022-10-24T19:22:45.280Z,2.65
2022-10-24T19:25:13.015Z,1.63
2022-10-24T19:27:40.629Z,1.63
2022-10-24T19:30:08.878Z,2.00
2022-10-24T19:32:36.420Z,1.77
2022-10-24T19:35:04.030Z,1.40
2022-10-24T19:37:31.340Z,1.67
2022-10-24T19:39:59.987Z,1.95
2022-10-24T19:42:27.294Z,1.80
2022-10-24T19:44:56.335Z,1.50
2022-10-24T19:47:23.705Z,1.85
2022-10-24T19:49:51.191Z,1.80
2022-10-24T19:52:18.735Z,2.20
2022-10-24T19:54:46.163Z,2.20
2022-10-24T19:57:16.337Z,1.35
2022-10-24T19:59:43.701Z,1.83
2022-10-24T20:02:11.607Z,1.92
2022-10-24T20:04:40.082Z,2.30
2022-10-24T20:07:08.346Z,2.03
2022-10-24T20:09:36.208Z,2.00
2022-10-24T20:12:04.245Z,2.00
2022-10-24T20:14:32.884Z,2.22
2022-10-24T20:17:00.251Z,1.85
2022-10-24T20:19:27.796Z,2.10
2022-10-24T20:21:56.828Z,1.90
2022-10-24T20:24:27.322Z,2.13
2022-10-24T20:26:54.740Z,2.67
2022-10-24T20:29:22.106Z,2.22
2022-10-24T20:31:50.756Z,2.33
2022-10-24T20:34:18.299Z,2.20
2022-10-24T20:36:47.157Z,1.88
2022-10-24T20:39:15.949Z,2.25
2022-10-24T20:41:43.749Z,2.15
2022-10-24T20:44:12.431Z,2.03
2022-10-24T20:46:39.783Z,2.15
2022-10-24T20:49:08.425Z,1.98
2022-10-24T20:51:35.858Z,2.00
2022-10-24T20:54:03.376Z,2.50
2022-10-24T20:56:30.660Z,2.08
2022-10-24T20:58:58.012Z,2.60
2022-10-24T21:01:26.265Z,2.28
2022-10-24T21:03:54.314Z,2.30
2022-10-24T21:06:23.718Z,2.55
2022-10-24T21:08:51.760Z,2.35
2022-10-24T21:11:24.557Z,3.22
2022-10-24T21:13:52.974Z,2.15
2022-10-24T21:16:20.386Z,2.28
2022-10-24T21:18:47.792Z,2.17
2022-10-24T21:21:15.817Z,2.42
2022-10-24T21:23:44.515Z,1.58
2022-10-24T21:26:12.727Z,2.38
2022-10-24T21:28:40.361Z,1.70
2022-10-24T21:31:08.451Z,1.88
2022-10-24T21:33:35.978Z,1.98
2022-10-24T21:36:07.077Z,1.95
2022-10-24T21:38:34.421Z,2.08
2022-10-24T21:41:03.483Z,2.10
2022-10-24T21:43:31.934Z,1.40
2022-10-24T21:46:02.884Z,1.75
2022-10-24T21:48:30.617Z,1.63
2022-10-24T21:51:01.664Z,1.77
2022-10-24T21:53:29.238Z,1.90
2022-10-24T21:56:03.417Z,1.80
2022-10-24T21:58:30.768Z,1.90
2022-10-24T22:00:58.499Z,2.20
2022-10-24T22:03:26.043Z,2.40
2022-10-24T22:05:53.918Z,2.03
2022-10-24T22:08:21.420Z,1.58
2022-10-24T22:10:55.716Z,2.00
2022-10-24T22:13:24.352Z,1.80
2022-10-24T22:15:51.837Z,2.58
2022-10-24T22:18:19.143Z,1.70
2022-10-24T22:20:46.438Z,1.70
2022-10-24T22:23:13.765Z,1.75
2022-10-24T22:25:41.116Z,1.80
2022-10-24T22:28:08.462Z,1.80
2022-10-24T22:30:37.797Z,2.03
2022-10-24T22:33:05.350Z,2.42
2022-10-24T22:35:33.148Z,2.08
2022-10-24T22:38:00.749Z,1.90
2022-10-24T22:40:29.104Z,2.17
2022-10-24T22:42:56.689Z,2.35
2022-10-24T22:45:24.712Z,1.60
2022-10-24T22:48:06.886Z,1.85
2022-10-24T22:50:44.120Z,1.67
2022-10-24T22:53:12.956Z,1.58
2022-10-24T22:55:44.622Z,1.80
2022-10-24T22:58:12.184Z,1.83
2022-10-24T23:00:39.700Z,2.30
2022-10-24T23:03:11.849Z,1.70
2022-10-24T23:05:44.862Z,1.80
2022-10-24T23:08:19.087Z,2.00
2022-10-24T23:10:46.645Z,2.28
2022-10-24T23:13:14.195Z,2.05
2022-10-24T23:15:41.726Z,1.55
2022-10-24T23:18:10.613Z,2.03
2022-10-24T23:20:41.028Z,1.40
2022-10-24T23:23:16.890Z,1.98
2022-10-24T23:25:56.355Z,1.85
2022-10-24T23:28:28.882Z,1.48
2022-10-24T23:30:56.538Z,1.48
2022-10-24T23:33:27.254Z,1.20
2022-10-24T23:35:57.527Z,1.63
2022-10-24T23:38:26.725Z,1.80
2022-10-24T23:40:54.410Z,1.92
2022-10-24T23:43:22.994Z,1.40
2022-10-24T23:45:51.580Z,1.70
2022-10-24T23:48:21.946Z,1.45
2022-10-24T23:50:53.183Z,1.63
2022-10-24T23:53:24.505Z,1.65
2022-10-24T23:55:53.634Z,1.35
2022-10-24T23:58:21.217Z,1.52
